This is the latest recevied weather packets stored in our database for station/object OM2RC-6. If no packets are shown the sender has not sent any weather packets the latest 1 day(s).
| Time | Temp. | Humidity | Pressure | Rain* | Wind** | Luminosity | Snow |
|---|---|---|---|---|---|---|---|
| 1777995686 | 23.33° C | 47% | 1007.6 hPa | - | 7.15 m/s, 160° | - | - |
| 1777995385 | 23.33° C | 45% | 1007.7 hPa | - | 4.92 m/s, 151° | - | - |
| 1777995083 | 23.33° C | 46% | 1007.7 hPa | - | 7.6 m/s, 162° | - | - |
| 1777994781 | 23.33° C | 45% | 1007.4 hPa | - | 8.05 m/s, 158° | - | - |
| 1777994481 | 23.89° C | 46% | 1007.6 hPa | - | 6.26 m/s, 163° | - | - |
| 1777994177 | 24.44° C | 45% | 1007.6 hPa | - | 6.26 m/s, 167° | - | - |
| 1777993877 | 24.44° C | 44% | 1007.6 hPa | - | 4.92 m/s, 164° | - | - |
| 1777993576 | 24.44° C | 43% | 1007.7 hPa | - | 5.81 m/s, 162° | - | - |
| 1777992974 | 24.44° C | 43% | 1007.9 hPa | - | 5.81 m/s, 182° | - | - |
| 1777992372 | 24.44° C | 42% | 1007.6 hPa | - | 7.15 m/s, 154° | - | - |
| 1777992070 | 25° C | 41% | 1007.8 hPa | - | 4.47 m/s, 160° | - | - |
| 1777991769 | 25° C | 41% | 1007.8 hPa | - | 6.26 m/s, 155° | - | - |
| 1777991468 | 25° C | 40% | 1007.7 hPa | - | 4.92 m/s, 161° | - | - |
| 1777991167 | 25.56° C | 40% | 1007.8 hPa | - | 5.81 m/s, 156° | - | - |
| 1777990866 | 25° C | 40% | 1007.9 hPa | - | 5.81 m/s, 150° | - | - |
| 1777989358 | 25.56° C | 39% | 1007.8 hPa | - | 5.81 m/s, 150° | - | - |
| 1777989056 | 25.56° C | 39% | 1008 hPa | - | 5.36 m/s, 152° | - | - |
| 1777988755 | 25.56° C | 39% | 1008.1 hPa | - | 4.02 m/s, 157° | - | - |
| 1777988454 | 25.56° C | 40% | 1008.2 hPa | - | 5.81 m/s, 166° | - | - |
| 1777988152 | 26.67° C | 40% | 1008.1 hPa | - | 4.47 m/s, 134° | - | - |
| 1777987851 | 26.11° C | 41% | 1008.3 hPa | - | 2.68 m/s, 159° | - | - |
| 1777987549 | 26.11° C | 42% | 1008.4 hPa | - | 3.58 m/s, 160° | - | - |
| 1777987248 | 26.11° C | 42% | 1008.4 hPa | - | 3.13 m/s, 150° | - | - |
| 1777986946 | 26.67° C | 41% | 1008.5 hPa | - | 2.68 m/s, 155° | - | - |
| 1777986645 | 25.56° C | 43% | 1008.6 hPa | - | 4.02 m/s, 146° | - | - |
* Rain since midnight (hover to see other rain measurements)
** Current wind speed in m/s (hover to see current wind gust speed)